Marble Falls, TX

11:25 PM CDT on September 19, 2014 (GMT -0500)
The Waterlands | Change Station
CLOSE
Current Station
Personal Weather Station
Location: Horseshoe Bay, TX
Elevation: 837 ft
Nearby Weather Stations

Elev 837 ft 30.55 °N, 98.35 °W | Updated 0 second ago

Clear
Clear
74.5 °F
Feels Like 72 °F
N
0.0
Wind Variable Wind from SSW
Gusts 0.0 mph

Today
High -- | Low -- °F
--% Chance of Precip.
Yesterday
High -- | Low -- °F
Precip. -- in
7:20 AM 7:33 PM
Waning Crescent, 15% visible
Pressure 29.96 in
Visibility 7.0 miles
Clouds Mostly Cloudy 2100 ft
Mostly Cloudy 3000 ft
Mostly Cloudy 3800 ft
Heat Index 72 °F
Dew Point 73 °F
Humidity 95%
Rainfall 0.05 in
Snow Depth Not available.
UV 0 out of 12
Pollen 6.50 out of 12
Air Quality Not available.
Flu Activity Not available.
METAR KDZB 200415Z AUTO 00000KT 7SM BKN021 BKN030 BKN038 23/23 A2996 RMK AO2 T02320232

More Conditions Fewer Conditions

Pressure 29.96 in
Visibility 7.0 miles
Clouds Mostly Cloudy 2100 ft
Mostly Cloudy 3000 ft
Mostly Cloudy 3800 ft
Heat Index 72 °F
Dew Point 73 °F
Humidity 95%
Rainfall 0.05 in
Snow Depth Not available.
UV 0 out of 12
Pollen 6.50 out of 12
Air Quality Not available.
Flu Activity Not available.
METAR KDZB 200415Z AUTO 00000KT 7SM BKN021 BKN030 BKN038 23/23 A2996 RMK AO2 T02320232

More Conditions Fewer Conditions

10-Day Weather Forecast

Almanac

Astronomy

Sep. 19, 2014 Rise Set
Actual Time 7:20 AM CDT 7:33 PM CDT
Civil Twilight 6:55 AM CDT 7:57 PM CDT
Nautical Twilight 6:27 AM CDT 8:25 PM CDT
Astronomical Twilight 5:59 AM CDT 8:54 PM CDT
Moon 3:20 AM CDT (9/19) 4:51 PM CDT (9/19)
Length of Visible Light 13h 01m
Length of Day
12h 13m
Tomorrow will be 1m 50s shorter.
Waning Crescent, 15% of the Moon is Illuminated
Sep 20
Waning Crescent
Sep 24
New
Oct 1
First Quarter
Oct 8
Full
Oct 15
Last Quarter

Today's Extremes

State Highs State Lows

Community

WunderPhotos

Upload Photos

1,754,777 photos uploaded!

WunderBlogs® & News

Nearby

Snow Depth

Station Depth Elevation
No new snow has been reported.

Earthquake Activity

City Distance Mag. Time & Date
No recent earthquake activity has been reported nearby.
Minimum magnitude displayed is 2.5.

Coastal Water Temperatures

Place Temperature
No Stations Reporting

Nearby Weather Stations